sensor_id;sensor_type;location;lat;lon;timestamp;pressure;altitude;pressure_sealevel;temperature;humidity
60874;BME280;46715;40.642;-7.920;2023-03-13T00:00:51;96471.44;;;11.67;100.00
60874;BME280;46715;40.642;-7.920;2023-03-13T00:02:52;96463.06;;;11.75;100.00
60874;BME280;46715;40.642;-7.920;2023-03-13T00:04:53;96466.44;;;11.75;100.00
60874;BME280;46715;40.642;-7.920;2023-03-13T00:06:54;96473.50;;;11.75;100.00
60874;BME280;46715;40.642;-7.920;2023-03-13T00:08:55;96466.75;;;11.69;100.00
60874;BME280;46715;40.642;-7.920;2023-03-13T00:10:55;96468.28;;;11.75;100.00
60874;BME280;46715;40.642;-7.920;2023-03-13T00:12:56;96465.13;;;11.78;100.00
60874;BME280;46715;40.642;-7.920;2023-03-13T00:14:57;96463.06;;;11.70;100.00
60874;BME280;46715;40.642;-7.920;2023-03-13T00:16:58;96470.69;;;11.66;100.00
60874;BME280;46715;40.642;-7.920;2023-03-13T00:18:59;96461.00;;;11.67;100.00
60874;BME280;46715;40.642;-7.920;2023-03-13T00:21:02;96460.75;;;11.63;100.00
60874;BME280;46715;40.642;-7.920;2023-03-13T00:23:03;96449.53;;;11.63;100.00
60874;BME280;46715;40.642;-7.920;2023-03-13T00:25:05;96439.09;;;11.57;100.00
60874;BME280;46715;40.642;-7.920;2023-03-13T00:27:06;96441.94;;;11.66;100.00
60874;BME280;46715;40.642;-7.920;2023-03-13T00:29:07;96436.47;;;11.63;100.00
60874;BME280;46715;40.642;-7.920;2023-03-13T00:31:14;96433.88;;;11.57;100.00
60874;BME280;46715;40.642;-7.920;2023-03-13T00:33:15;96431.59;;;11.46;100.00
60874;BME280;46715;40.642;-7.920;2023-03-13T00:35:16;96420.66;;;11.38;100.00
60874;BME280;46715;40.642;-7.920;2023-03-13T00:37:17;96409.94;;;11.40;100.00
60874;BME280;46715;40.642;-7.920;2023-03-13T00:39:18;96404.00;;;11.74;100.00
60874;BME280;46715;40.642;-7.920;2023-03-13T00:41:22;96415.00;;;11.76;100.00
60874;BME280;46715;40.642;-7.920;2023-03-13T00:43:23;96412.50;;;11.50;100.00
60874;BME280;46715;40.642;-7.920;2023-03-13T00:45:23;96393.72;;;11.48;100.00
60874;BME280;46715;40.642;-7.920;2023-03-13T00:47:26;96397.31;;;11.57;100.00
60874;BME280;46715;40.642;-7.920;2023-03-13T00:49:27;96412.00;;;11.43;100.00
60874;BME280;46715;40.642;-7.920;2023-03-13T00:51:28;96406.81;;;11.38;100.00
60874;BME280;46715;40.642;-7.920;2023-03-13T00:53:30;96409.47;;;11.33;100.00
60874;BME280;46715;40.642;-7.920;2023-03-13T00:55:31;96405.78;;;11.34;100.00
60874;BME280;46715;40.642;-7.920;2023-03-13T00:57:32;96417.78;;;11.35;100.00
60874;BME280;46715;40.642;-7.920;2023-03-13T00:59:36;96412.31;;;11.31;100.00
60874;BME280;46715;40.642;-7.920;2023-03-13T01:01:37;96405.81;;;11.29;100.00
60874;BME280;46715;40.642;-7.920;2023-03-13T01:03:39;96398.81;;;11.19;100.00
60874;BME280;46715;40.642;-7.920;2023-03-13T01:05:41;96393.59;;;11.08;100.00
60874;BME280;46715;40.642;-7.920;2023-03-13T01:07:41;96392.59;;;10.99;100.00
60874;BME280;46715;40.642;-7.920;2023-03-13T01:09:42;96394.97;;;10.96;100.00
60874;BME280;46715;40.642;-7.920;2023-03-13T01:11:44;96389.75;;;10.90;100.00
60874;BME280;46715;40.642;-7.920;2023-03-13T01:13:48;96400.19;;;10.85;100.00
60874;BME280;46715;40.642;-7.920;2023-03-13T01:15:49;96409.84;;;10.80;100.00
60874;BME280;46715;40.642;-7.920;2023-03-13T01:17:49;96400.47;;;10.89;100.00
60874;BME280;46715;40.642;-7.920;2023-03-13T01:19:50;96396.03;;;10.79;100.00
60874;BME280;46715;40.642;-7.920;2023-03-13T01:21:54;96390.88;;;10.69;100.00
60874;BME280;46715;40.642;-7.920;2023-03-13T01:23:55;96380.16;;;10.60;100.00
60874;BME280;46715;40.642;-7.920;2023-03-13T01:25:56;96380.44;;;10.69;100.00
60874;BME280;46715;40.642;-7.920;2023-03-13T01:27:57;96387.91;;;11.06;100.00
60874;BME280;46715;40.642;-7.920;2023-03-13T01:29:58;96396.41;;;11.28;100.00
60874;BME280;46715;40.642;-7.920;2023-03-13T01:31:58;96412.06;;;11.33;100.00
60874;BME280;46715;40.642;-7.920;2023-03-13T01:34:02;96410.25;;;11.23;100.00
60874;BME280;46715;40.642;-7.920;2023-03-13T01:36:03;96396.50;;;11.07;100.00
60874;BME280;46715;40.642;-7.920;2023-03-13T01:38:04;96380.00;;;11.22;100.00
60874;BME280;46715;40.642;-7.920;2023-03-13T01:40:05;96376.47;;;11.52;100.00
60874;BME280;46715;40.642;-7.920;2023-03-13T01:42:07;96382.84;;;11.75;100.00
60874;BME280;46715;40.642;-7.920;2023-03-13T01:44:23;96389.06;;;11.85;100.00
60874;BME280;46715;40.642;-7.920;2023-03-13T01:46:27;96396.66;;;11.81;100.00
60874;BME280;46715;40.642;-7.920;2023-03-13T01:50:55;96387.94;;;11.56;100.00
60874;BME280;46715;40.642;-7.920;2023-03-13T01:53:00;96389.53;;;11.52;100.00
60874;BME280;46715;40.642;-7.920;2023-03-13T01:55:08;96396.63;;;11.41;100.00
60874;BME280;46715;40.642;-7.920;2023-03-13T01:57:20;96395.59;;;11.37;100.00
60874;BME280;46715;40.642;-7.920;2023-03-13T01:59:34;96391.69;;;11.30;100.00
60874;BME280;46715;40.642;-7.920;2023-03-13T02:01:41;96392.22;;;11.32;100.00
60874;BME280;46715;40.642;-7.920;2023-03-13T02:03:43;96393.81;;;11.22;100.00
60874;BME280;46715;40.642;-7.920;2023-03-13T02:05:45;96393.34;;;11.15;100.00
60874;BME280;46715;40.642;-7.920;2023-03-13T02:08:25;96379.78;;;11.08;100.00
60874;BME280;46715;40.642;-7.920;2023-03-13T02:10:31;96391.53;;;11.11;100.00
60874;BME280;46715;40.642;-7.920;2023-03-13T02:12:36;96400.91;;;11.12;100.00
60874;BME280;46715;40.642;-7.920;2023-03-13T02:14:41;96407.97;;;11.11;100.00
60874;BME280;46715;40.642;-7.920;2023-03-13T02:16:44;96406.44;;;11.00;100.00
60874;BME280;46715;40.642;-7.920;2023-03-13T02:18:49;96396.53;;;10.91;100.00
60874;BME280;46715;40.642;-7.920;2023-03-13T02:20:52;96393.94;;;10.86;100.00
60874;BME280;46715;40.642;-7.920;2023-03-13T02:27:32;96389.53;;;10.71;100.00
60874;BME280;46715;40.642;-7.920;2023-03-13T02:29:33;96385.66;;;10.69;100.00
60874;BME280;46715;40.642;-7.920;2023-03-13T02:31:34;96383.31;;;10.62;100.00
60874;BME280;46715;40.642;-7.920;2023-03-13T02:33:39;96377.59;;;10.55;100.00
60874;BME280;46715;40.642;-7.920;2023-03-13T02:35:43;96372.88;;;10.52;100.00
60874;BME280;46715;40.642;-7.920;2023-03-13T02:37:50;96358.56;;;10.39;100.00
60874;BME280;46715;40.642;-7.920;2023-03-13T02:39:55;96363.28;;;10.37;100.00
60874;BME280;46715;40.642;-7.920;2023-03-13T02:41:58;96363.75;;;10.34;100.00
60874;BME280;46715;40.642;-7.920;2023-03-13T02:44:01;96356.19;;;10.27;100.00
60874;BME280;46715;40.642;-7.920;2023-03-13T02:46:14;96345.25;;;10.20;100.00
60874;BME280;46715;40.642;-7.920;2023-03-13T02:48:29;96341.88;;;10.14;100.00
60874;BME280;46715;40.642;-7.920;2023-03-13T02:50:32;96329.13;;;10.02;100.00
60874;BME280;46715;40.642;-7.920;2023-03-13T02:52:37;96319.22;;;9.94;100.00
60874;BME280;46715;40.642;-7.920;2023-03-13T02:54:44;96320.25;;;10.03;100.00
60874;BME280;46715;40.642;-7.920;2023-03-13T02:56:59;96335.13;;;10.08;100.00
60874;BME280;46715;40.642;-7.920;2023-03-13T02:59:01;96342.94;;;10.08;100.00
60874;BME280;46715;40.642;-7.920;2023-03-13T03:01:02;96352.31;;;10.04;100.00
60874;BME280;46715;40.642;-7.920;2023-03-13T03:03:08;96352.81;;;9.96;100.00
60874;BME280;46715;40.642;-7.920;2023-03-13T03:05:11;96347.63;;;10.01;100.00
60874;BME280;46715;40.642;-7.920;2023-03-13T03:07:13;96344.22;;;9.95;100.00
60874;BME280;46715;40.642;-7.920;2023-03-13T03:09:16;96358.03;;;9.90;100.00
60874;BME280;46715;40.642;-7.920;2023-03-13T03:11:17;96359.06;;;9.89;100.00
60874;BME280;46715;40.642;-7.920;2023-03-13T03:13:23;96357.00;;;9.92;100.00
60874;BME280;46715;40.642;-7.920;2023-03-13T03:15:24;96347.34;;;10.13;100.00
60874;BME280;46715;40.642;-7.920;2023-03-13T03:17:26;96345.75;;;10.27;100.00
60874;BME280;46715;40.642;-7.920;2023-03-13T03:19:27;96343.19;;;10.37;100.00
60874;BME280;46715;40.642;-7.920;2023-03-13T03:21:28;96339.00;;;10.47;100.00
60874;BME280;46715;40.642;-7.920;2023-03-13T03:23:29;96342.13;;;10.49;100.00
60874;BME280;46715;40.642;-7.920;2023-03-13T03:25:30;96335.06;;;10.60;100.00
60874;BME280;46715;40.642;-7.920;2023-03-13T03:27:30;96335.34;;;10.58;100.00
60874;BME280;46715;40.642;-7.920;2023-03-13T03:29:31;96335.56;;;10.67;100.00
60874;BME280;46715;40.642;-7.920;2023-03-13T03:31:33;96332.19;;;10.66;100.00
60874;BME280;46715;40.642;-7.920;2023-03-13T03:33:35;96331.16;;;10.62;100.00
60874;BME280;46715;40.642;-7.920;2023-03-13T03:35:39;96331.16;;;10.62;100.00
60874;BME280;46715;40.642;-7.920;2023-03-13T03:37:41;96318.38;;;10.55;100.00
60874;BME280;46715;40.642;-7.920;2023-03-13T03:39:42;96317.63;;;10.55;100.00
60874;BME280;46715;40.642;-7.920;2023-03-13T03:41:43;96315.00;;;10.55;100.00
60874;BME280;46715;40.642;-7.920;2023-03-13T03:43:45;96323.88;;;10.54;100.00
60874;BME280;46715;40.642;-7.920;2023-03-13T03:45:49;96336.91;;;10.49;100.00
60874;BME280;46715;40.642;-7.920;2023-03-13T03:47:50;96330.41;;;10.46;100.00
60874;BME280;46715;40.642;-7.920;2023-03-13T03:49:51;96327.28;;;10.39;100.00
60874;BME280;46715;40.642;-7.920;2023-03-13T03:51:52;96323.09;;;10.33;100.00
60874;BME280;46715;40.642;-7.920;2023-03-13T03:53:59;96331.19;;;10.21;100.00
60874;BME280;46715;40.642;-7.920;2023-03-13T03:56:02;96327.53;;;10.17;100.00
60874;BME280;46715;40.642;-7.920;2023-03-13T03:58:04;96334.84;;;10.15;100.00
60874;BME280;46715;40.642;-7.920;2023-03-13T04:00:24;96324.97;;;10.06;100.00
60874;BME280;46715;40.642;-7.920;2023-03-13T04:02:27;96321.03;;;9.99;100.00
60874;BME280;46715;40.642;-7.920;2023-03-13T04:04:28;96309.31;;;9.91;100.00
60874;BME280;46715;40.642;-7.920;2023-03-13T04:06:39;96312.97;;;9.90;100.00
60874;BME280;46715;40.642;-7.920;2023-03-13T04:08:41;96315.31;;;9.97;100.00
60874;BME280;46715;40.642;-7.920;2023-03-13T04:10:46;96310.34;;;9.95;100.00
60874;BME280;46715;40.642;-7.920;2023-03-13T04:12:47;96297.09;;;9.97;100.00
60874;BME280;46715;40.642;-7.920;2023-03-13T04:14:48;96290.56;;;9.99;100.00
60874;BME280;46715;40.642;-7.920;2023-03-13T04:16:50;96295.50;;;10.06;100.00
60874;BME280;46715;40.642;-7.920;2023-03-13T04:18:50;96298.91;;;10.06;100.00
60874;BME280;46715;40.642;-7.920;2023-03-13T04:21:02;96302.78;;;10.09;100.00
60874;BME280;46715;40.642;-7.920;2023-03-13T04:23:09;96291.59;;;10.09;100.00
60874;BME280;46715;40.642;-7.920;2023-03-13T04:25:10;96296.28;;;10.06;100.00
60874;BME280;46715;40.642;-7.920;2023-03-13T04:27:12;96298.13;;;10.01;100.00
60874;BME280;46715;40.642;-7.920;2023-03-13T04:29:12;96292.13;;;9.90;100.00
60874;BME280;46715;40.642;-7.920;2023-03-13T04:31:33;96297.59;;;9.83;100.00
60874;BME280;46715;40.642;-7.920;2023-03-13T04:33:46;96294.47;;;9.81;100.00
60874;BME280;46715;40.642;-7.920;2023-03-13T04:36:10;96301.00;;;9.73;100.00
60874;BME280;46715;40.642;-7.920;2023-03-13T04:38:22;96298.63;;;9.67;100.00
60874;BME280;46715;40.642;-7.920;2023-03-13T04:40:23;96301.25;;;9.67;100.00
60874;BME280;46715;40.642;-7.920;2023-03-13T04:42:29;96306.97;;;9.64;100.00
60874;BME280;46715;40.642;-7.920;2023-03-13T04:45:06;96305.13;;;9.64;100.00
60874;BME280;46715;40.642;-7.920;2023-03-13T04:47:15;96302.00;;;9.67;100.00
60874;BME280;46715;40.642;-7.920;2023-03-13T04:49:35;96310.88;;;9.51;100.00
60874;BME280;46715;40.642;-7.920;2023-03-13T04:51:47;96310.06;;;9.40;100.00
60874;BME280;46715;40.642;-7.920;2023-03-13T04:54:12;96306.91;;;9.38;100.00
60874;BME280;46715;40.642;-7.920;2023-03-13T04:56:38;96309.75;;;9.31;100.00
60874;BME280;46715;40.642;-7.920;2023-03-13T04:59:05;96307.97;;;9.37;100.00
60874;BME280;46715;40.642;-7.920;2023-03-13T05:01:32;96309.25;;;9.39;100.00
60874;BME280;46715;40.642;-7.920;2023-03-13T05:03:59;96312.91;;;9.44;100.00
60874;BME280;46715;40.642;-7.920;2023-03-13T05:06:23;96306.91;;;9.38;100.00
60874;BME280;46715;40.642;-7.920;2023-03-13T05:08:44;96306.41;;;9.46;100.00
60874;BME280;46715;40.642;-7.920;2023-03-13T05:11:16;96303.59;;;9.58;100.00
60874;BME280;46715;40.642;-7.920;2023-03-13T05:13:41;96309.31;;;9.60;100.00
60874;BME280;46715;40.642;-7.920;2023-03-13T05:16:00;96301.75;;;9.59;100.00
60874;BME280;46715;40.642;-7.920;2023-03-13T05:18:10;96298.09;;;9.54;100.00
60874;BME280;46715;40.642;-7.920;2023-03-13T05:20:22;96297.06;;;9.55;100.00
60874;BME280;46715;40.642;-7.920;2023-03-13T05:22:52;96287.97;;;9.58;100.00
60874;BME280;46715;40.642;-7.920;2023-03-13T05:25:12;96287.97;;;9.68;100.00
60874;BME280;46715;40.642;-7.920;2023-03-13T05:27:33;96292.38;;;9.78;100.00
60874;BME280;46715;40.642;-7.920;2023-03-13T05:30:03;96285.34;;;9.89;100.00
60874;BME280;46715;40.642;-7.920;2023-03-13T05:32:17;96285.09;;;10.01;100.00
60874;BME280;46715;40.642;-7.920;2023-03-13T05:34:46;96285.59;;;10.18;100.00
60874;BME280;46715;40.642;-7.920;2023-03-13T05:37:16;96287.16;;;10.35;100.00
60874;BME280;46715;40.642;-7.920;2023-03-13T05:39:26;96285.31;;;10.51;100.00
60874;BME280;46715;40.642;-7.920;2023-03-13T05:41:49;96292.53;;;10.64;100.00
60874;BME280;46715;40.642;-7.920;2023-03-13T05:44:25;96281.81;;;10.76;100.00
60874;BME280;46715;40.642;-7.920;2023-03-13T05:46:44;96285.97;;;10.82;100.00
60874;BME280;46715;40.642;-7.920;2023-03-13T05:49:11;96283.31;;;10.93;100.00
60874;BME280;46715;40.642;-7.920;2023-03-13T05:51:31;96286.91;;;11.02;100.00
60874;BME280;46715;40.642;-7.920;2023-03-13T05:54:04;96289.72;;;11.16;100.00
60874;BME280;46715;40.642;-7.920;2023-03-13T05:56:17;96287.56;;;11.23;100.00
60874;BME280;46715;40.642;-7.920;2023-03-13T05:58:18;96291.47;;;11.25;100.00
60874;BME280;46715;40.642;-7.920;2023-03-13T06:00:27;96289.88;;;11.35;100.00
60874;BME280;46715;40.642;-7.920;2023-03-13T06:02:51;96280.19;;;11.40;100.00
60874;BME280;46715;40.642;-7.920;2023-03-13T06:04:58;96290.88;;;11.44;100.00
60874;BME280;46715;40.642;-7.920;2023-03-13T06:06:59;96289.28;;;11.48;100.00
60874;BME280;46715;40.642;-7.920;2023-03-13T06:09:01;96283.22;;;11.53;100.00
60874;BME280;46715;40.642;-7.920;2023-03-13T06:11:04;96282.94;;;11.54;100.00
60874;BME280;46715;40.642;-7.920;2023-03-13T06:13:07;96285.75;;;11.63;100.00
60874;BME280;46715;40.642;-7.920;2023-03-13T06:15:10;96285.75;;;11.63;100.00
60874;BME280;46715;40.642;-7.920;2023-03-13T06:17:33;96291.94;;;11.77;100.00
60874;BME280;46715;40.642;-7.920;2023-03-13T06:19:34;96284.88;;;11.78;100.00
60874;BME280;46715;40.642;-7.920;2023-03-13T06:21:35;96279.63;;;11.83;100.00
60874;BME280;46715;40.642;-7.920;2023-03-13T06:23:35;96279.38;;;11.80;100.00
60874;BME280;46715;40.642;-7.920;2023-03-13T06:25:36;96271.66;;;11.64;100.00
60874;BME280;46715;40.642;-7.920;2023-03-13T06:27:40;96281.56;;;11.67;100.00
60874;BME280;46715;40.642;-7.920;2023-03-13T06:29:41;96282.28;;;11.73;100.00
60874;BME280;46715;40.642;-7.920;2023-03-13T06:31:41;96288.81;;;11.75;100.00
60874;BME280;46715;40.642;-7.920;2023-03-13T06:33:42;96280.78;;;11.67;100.00
60874;BME280;46715;40.642;-7.920;2023-03-13T06:35:43;96270.59;;;11.65;100.00
60874;BME280;46715;40.642;-7.920;2023-03-13T06:37:44;96261.22;;;11.64;100.00
60874;BME280;46715;40.642;-7.920;2023-03-13T06:39:45;96263.59;;;11.60;100.00
60874;BME280;46715;40.642;-7.920;2023-03-13T06:41:46;96271.44;;;11.60;100.00
60874;BME280;46715;40.642;-7.920;2023-03-13T06:43:46;96270.88;;;11.64;100.00
60874;BME280;46715;40.642;-7.920;2023-03-13T06:45:47;96252.91;;;11.57;100.00
60874;BME280;46715;40.642;-7.920;2023-03-13T06:47:48;96243.50;;;11.56;100.00
60874;BME280;46715;40.642;-7.920;2023-03-13T06:49:51;96234.88;;;11.60;100.00
60874;BME280;46715;40.642;-7.920;2023-03-13T06:51:51;96221.03;;;11.60;100.00
60874;BME280;46715;40.642;-7.920;2023-03-13T06:53:53;96220.44;;;11.68;100.00
60874;BME280;46715;40.642;-7.920;2023-03-13T06:55:53;96212.63;;;11.63;100.00
60874;BME280;46715;40.642;-7.920;2023-03-13T06:57:55;96218.38;;;11.65;100.00
60874;BME280;46715;40.642;-7.920;2023-03-13T06:59:55;96235.28;;;11.73;100.00
60874;BME280;46715;40.642;-7.920;2023-03-13T07:01:56;96238.31;;;11.85;100.00
60874;BME280;46715;40.642;-7.920;2023-03-13T07:03:57;96243.19;;;11.97;100.00
60874;BME280;46715;40.642;-7.920;2023-03-13T07:05:58;96250.78;;;11.93;100.00
60874;BME280;46715;40.642;-7.920;2023-03-13T07:07:59;96241.72;;;11.86;100.00
60874;BME280;46715;40.642;-7.920;2023-03-13T07:10:00;96246.41;;;11.84;100.00
60874;BME280;46715;40.642;-7.920;2023-03-13T07:12:01;96250.34;;;11.81;100.00
60874;BME280;46715;40.642;-7.920;2023-03-13T07:14:03;96245.34;;;11.90;100.00
60874;BME280;46715;40.642;-7.920;2023-03-13T07:16:06;96240.88;;;11.90;100.00
60874;BME280;46715;40.642;-7.920;2023-03-13T07:18:07;96245.09;;;11.86;100.00
60874;BME280;46715;40.642;-7.920;2023-03-13T07:20:08;96234.69;;;11.81;100.00
60874;BME280;46715;40.642;-7.920;2023-03-13T07:22:10;96237.50;;;11.90;100.00
60874;BME280;46715;40.642;-7.920;2023-03-13T07:24:11;96235.38;;;11.92;100.00
60874;BME280;46715;40.642;-7.920;2023-03-13T07:26:14;96229.88;;;11.93;100.00
60874;BME280;46715;40.642;-7.920;2023-03-13T07:28:15;96231.91;;;12.02;100.00
60874;BME280;46715;40.642;-7.920;2023-03-13T07:30:16;96216.22;;;12.02;100.00
60874;BME280;46715;40.642;-7.920;2023-03-13T07:32:16;96215.50;;;11.91;100.00
60874;BME280;46715;40.642;-7.920;2023-03-13T07:34:17;96204.72;;;12.03;100.00
60874;BME280;46715;40.642;-7.920;2023-03-13T07:36:18;96203.59;;;12.09;100.00
60874;BME280;46715;40.642;-7.920;2023-03-13T07:38:20;96212.97;;;12.15;100.00
60874;BME280;46715;40.642;-7.920;2023-03-13T07:40:20;96223.91;;;12.17;100.00
60874;BME280;46715;40.642;-7.920;2023-03-13T07:42:21;96214.97;;;12.23;100.00
60874;BME280;46715;40.642;-7.920;2023-03-13T07:44:22;96207.75;;;12.15;100.00
60874;BME280;46715;40.642;-7.920;2023-03-13T07:46:23;96207.19;;;11.94;100.00
60874;BME280;46715;40.642;-7.920;2023-03-13T07:48:31;96204.97;;;12.06;100.00
60874;BME280;46715;40.642;-7.920;2023-03-13T07:50:32;96216.06;;;12.17;100.00
60874;BME280;46715;40.642;-7.920;2023-03-13T07:52:33;96207.09;;;12.28;100.00
60874;BME280;46715;40.642;-7.920;2023-03-13T07:54:34;96208.09;;;12.33;100.00
60874;BME280;46715;40.642;-7.920;2023-03-13T07:56:34;96205.38;;;12.19;100.00
60874;BME280;46715;40.642;-7.920;2023-03-13T07:58:36;96208.78;;;12.14;100.00
60874;BME280;46715;40.642;-7.920;2023-03-13T08:00:37;96207.00;;;12.34;100.00
60874;BME280;46715;40.642;-7.920;2023-03-13T08:02:38;96213.03;;;12.34;100.00
60874;BME280;46715;40.642;-7.920;2023-03-13T08:04:39;96212.75;;;12.36;100.00
60874;BME280;46715;40.642;-7.920;2023-03-13T08:06:40;96222.19;;;12.56;100.00
60874;BME280;46715;40.642;-7.920;2023-03-13T08:08:42;96228.06;;;12.67;100.00
60874;BME280;46715;40.642;-7.920;2023-03-13T08:10:43;96228.59;;;12.69;100.00
60874;BME280;46715;40.642;-7.920;2023-03-13T08:12:44;96222.28;;;12.70;100.00
60874;BME280;46715;40.642;-7.920;2023-03-13T08:14:45;96225.47;;;12.67;100.00
60874;BME280;46715;40.642;-7.920;2023-03-13T08:16:46;96221.78;;;12.68;100.00
60874;BME280;46715;40.642;-7.920;2023-03-13T08:18:48;96227.50;;;12.70;100.00
60874;BME280;46715;40.642;-7.920;2023-03-13T08:20:49;96224.31;;;12.73;100.00
60874;BME280;46715;40.642;-7.920;2023-03-13T08:22:56;96210.63;;;12.81;100.00
60874;BME280;46715;40.642;-7.920;2023-03-13T08:24:57;96206.19;;;12.82;100.00
60874;BME280;46715;40.642;-7.920;2023-03-13T08:26:58;96225.25;;;12.82;100.00
60874;BME280;46715;40.642;-7.920;2023-03-13T08:29:19;96215.66;;;12.77;100.00
60874;BME280;46715;40.642;-7.920;2023-03-13T08:31:23;96225.50;;;12.61;100.00
60874;BME280;46715;40.642;-7.920;2023-03-13T08:33:23;96223.63;;;12.67;100.00
60874;BME280;46715;40.642;-7.920;2023-03-13T08:35:24;96233.06;;;12.63;100.00
60874;BME280;46715;40.642;-7.920;2023-03-13T08:37:25;96238.47;;;12.72;100.00
60874;BME280;46715;40.642;-7.920;2023-03-13T08:39:26;96238.00;;;12.45;100.00
60874;BME280;46715;40.642;-7.920;2023-03-13T08:41:29;96239.00;;;12.50;100.00
60874;BME280;46715;40.642;-7.920;2023-03-13T08:43:31;96235.50;;;12.59;100.00
60874;BME280;46715;40.642;-7.920;2023-03-13T08:45:32;96230.66;;;12.48;100.00
60874;BME280;46715;40.642;-7.920;2023-03-13T08:47:33;96234.88;;;12.43;100.00
60874;BME280;46715;40.642;-7.920;2023-03-13T08:49:34;96241.81;;;12.53;100.00
60874;BME280;46715;40.642;-7.920;2023-03-13T08:51:35;96229.00;;;12.33;100.00
60874;BME280;46715;40.642;-7.920;2023-03-13T08:53:37;96227.53;;;12.21;100.00
60874;BME280;46715;40.642;-7.920;2023-03-13T08:56:16;96232.81;;;12.40;100.00
60874;BME280;46715;40.642;-7.920;2023-03-13T08:58:17;96241.88;;;12.24;100.00
60874;BME280;46715;40.642;-7.920;2023-03-13T09:00:18;96249.75;;;12.48;100.00
60874;BME280;46715;40.642;-7.920;2023-03-13T09:02:19;96250.13;;;12.60;100.00
60874;BME280;46715;40.642;-7.920;2023-03-13T09:04:23;96260.66;;;12.55;100.00
60874;BME280;46715;40.642;-7.920;2023-03-13T09:06:35;96253.13;;;12.49;100.00
60874;BME280;46715;40.642;-7.920;2023-03-13T09:08:37;96257.69;;;12.38;100.00
60874;BME280;46715;40.642;-7.920;2023-03-13T09:10:38;96250.66;;;12.57;100.00
60874;BME280;46715;40.642;-7.920;2023-03-13T09:12:39;96258.50;;;12.82;100.00
60874;BME280;46715;40.642;-7.920;2023-03-13T09:14:41;96264.81;;;13.00;100.00
60874;BME280;46715;40.642;-7.920;2023-03-13T09:16:41;96267.81;;;13.12;100.00
60874;BME280;46715;40.642;-7.920;2023-03-13T09:18:44;96260.84;;;13.21;100.00
60874;BME280;46715;40.642;-7.920;2023-03-13T09:20:45;96269.28;;;13.18;100.00
60874;BME280;46715;40.642;-7.920;2023-03-13T09:22:46;96267.72;;;13.17;100.00
60874;BME280;46715;40.642;-7.920;2023-03-13T09:24:47;96266.09;;;13.21;100.00
60874;BME280;46715;40.642;-7.920;2023-03-13T09:26:50;96268.94;;;13.25;100.00
60874;BME280;46715;40.642;-7.920;2023-03-13T09:28:51;96272.03;;;13.27;100.00
60874;BME280;46715;40.642;-7.920;2023-03-13T09:30:52;96277.19;;;13.37;100.00
60874;BME280;46715;40.642;-7.920;2023-03-13T09:32:53;96283.13;;;13.43;100.00
60874;BME280;46715;40.642;-7.920;2023-03-13T09:34:54;96283.47;;;13.55;100.00
60874;BME280;46715;40.642;-7.920;2023-03-13T09:36:55;96289.13;;;13.62;100.00
60874;BME280;46715;40.642;-7.920;2023-03-13T09:38:57;96289.03;;;13.68;100.00
60874;BME280;46715;40.642;-7.920;2023-03-13T09:41:48;96293.41;;;13.72;100.00
60874;BME280;46715;40.642;-7.920;2023-03-13T09:44:06;96305.91;;;13.94;100.00
60874;BME280;46715;40.642;-7.920;2023-03-13T09:48:43;96301.97;;;14.72;100.00
60874;BME280;46715;40.642;-7.920;2023-03-13T09:50:53;96305.25;;;15.05;100.00
60874;BME280;46715;40.642;-7.920;2023-03-13T09:53:06;96301.03;;;15.18;100.00
60874;BME280;46715;40.642;-7.920;2023-03-13T09:57:59;96316.22;;;15.21;100.00
60874;BME280;46715;40.642;-7.920;2023-03-13T10:00:10;96309.72;;;15.55;100.00
60874;BME280;46715;40.642;-7.920;2023-03-13T10:02:24;96311.94;;;15.62;100.00
60874;BME280;46715;40.642;-7.920;2023-03-13T10:04:44;96314.63;;;16.16;100.00
60874;BME280;46715;40.642;-7.920;2023-03-13T10:06:47;96316.34;;;16.52;98.45
60874;BME280;46715;40.642;-7.920;2023-03-13T10:08:48;96317.13;;;16.21;98.07
60874;BME280;46715;40.642;-7.920;2023-03-13T10:17:52;96331.97;;;15.94;98.64
60874;BME280;46715;40.642;-7.920;2023-03-13T10:20:23;96312.97;;;15.97;98.52
60874;BME280;46715;40.642;-7.920;2023-03-13T10:22:27;96324.28;;;16.29;98.25
60874;BME280;46715;40.642;-7.920;2023-03-13T10:24:37;96325.53;;;16.32;98.35
60874;BME280;46715;40.642;-7.920;2023-03-13T10:26:51;96322.22;;;16.49;98.86
60874;BME280;46715;40.642;-7.920;2023-03-13T10:32:00;96322.91;;;17.12;93.83
60874;BME280;46715;40.642;-7.920;2023-03-13T10:34:58;96330.88;;;17.65;93.97
60874;BME280;46715;40.642;-7.920;2023-03-13T10:37:00;96335.03;;;17.83;85.99
60874;BME280;46715;40.642;-7.920;2023-03-13T10:39:07;96325.38;;;18.31;80.84
60874;BME280;46715;40.642;-7.920;2023-03-13T10:41:34;96335.97;;;18.61;76.72
60874;BME280;46715;40.642;-7.920;2023-03-13T10:43:35;96311.78;;;18.50;68.64
60874;BME280;46715;40.642;-7.920;2023-03-13T10:45:48;96313.38;;;18.43;70.15
60874;BME280;46715;40.642;-7.920;2023-03-13T10:47:54;96323.34;;;18.37;70.98
60874;BME280;46715;40.642;-7.920;2023-03-13T10:52:47;96325.59;;;17.56;73.06
60874;BME280;46715;40.642;-7.920;2023-03-13T10:55:00;96318.91;;;17.41;71.95
60874;BME280;46715;40.642;-7.920;2023-03-13T10:59:24;96331.00;;;17.16;75.21
60874;BME280;46715;40.642;-7.920;2023-03-13T11:01:59;96329.44;;;17.24;76.55
60874;BME280;46715;40.642;-7.920;2023-03-13T11:03:53;96333.50;;;17.56;75.19
60874;BME280;46715;40.642;-7.920;2023-03-13T11:05:59;96329.78;;;17.66;73.00
60874;BME280;46715;40.642;-7.920;2023-03-13T11:08:21;96334.28;;;17.48;67.79
60874;BME280;46715;40.642;-7.920;2023-03-13T11:10:27;96333.00;;;17.28;66.88
60874;BME280;46715;40.642;-7.920;2023-03-13T11:12:33;96340.59;;;17.12;66.56
60874;BME280;46715;40.642;-7.920;2023-03-13T11:14:34;96338.13;;;17.33;66.65
60874;BME280;46715;40.642;-7.920;2023-03-13T11:16:43;96329.44;;;17.32;61.96
60874;BME280;46715;40.642;-7.920;2023-03-13T11:18:52;96330.50;;;17.14;60.16
60874;BME280;46715;40.642;-7.920;2023-03-13T11:21:00;96336.44;;;17.28;61.30